Time;durP1;ratioP1;P1;durP2;ratioP2;P2;SDS_P1;SDS_P2;PMS_P1;PMS_P2;Temp;Humidity;BMP_temperature;BMP_pressure;BME280_temperature;BME280_humidity;BME280_pressure;Samples;Min_cycle;Max_cycle;Signal;HPM_P1;HPM_P2
2023/05/21 00:00:11;;;;;;;13.83;11.20;;;;;;;19.96;65.90;99916.94;4994816;28;20451;-64
2023/05/21 00:02:37;;;;;;;13.30;10.70;;;;;;;19.95;65.97;99921.00;4998053;28;20213;-64
2023/05/21 00:05:02;;;;;;;13.10;11.53;;;;;;;19.94;66.12;99916.50;4985597;28;20444;-63
2023/05/21 00:07:30;;;;;;;12.17;10.87;;;;;;;19.95;66.00;99921.00;4990862;28;20227;-63
2023/05/21 00:09:55;;;;;;;12.50;10.53;;;;;;;19.95;65.98;99912.41;5016832;28;20204;-64
2023/05/21 00:12:21;;;;;;;16.70;13.37;;;;;;;19.95;65.93;99908.72;5011779;28;20475;-64
2023/05/21 00:14:46;;;;;;;15.30;11.97;;;;;;;19.94;65.96;99905.06;5008354;28;20185;-63
2023/05/21 00:17:12;;;;;;;13.47;11.63;;;;;;;19.94;66.20;99907.91;5008981;28;20193;-64
2023/05/21 00:19:38;;;;;;;14.67;11.67;;;;;;;19.94;66.16;99895.63;5008059;28;20208;-65
2023/05/21 00:22:04;;;;;;;14.33;11.23;;;;;;;19.93;66.12;99906.28;5007392;28;20196;-64
2023/05/21 00:24:30;;;;;;;14.43;10.83;;;;;;;19.92;65.93;99896.03;5010214;28;20841;-65
2023/05/21 00:26:55;;;;;;;13.57;11.20;;;;;;;19.91;65.92;99897.25;5008788;28;20417;-64
2023/05/21 00:29:21;;;;;;;16.43;11.40;;;;;;;19.92;66.09;99892.34;5012062;28;20192;-64
2023/05/21 00:31:47;;;;;;;13.83;11.77;;;;;;;19.92;66.17;99898.88;5009064;28;20637;-64
2023/05/21 00:34:13;;;;;;;15.80;12.00;;;;;;;19.91;66.19;99897.25;5025760;28;20514;-64
2023/05/21 00:36:39;;;;;;;16.03;11.87;;;;;;;19.92;66.13;99886.63;5023697;28;20530;-64
2023/05/21 00:39:05;;;;;;;16.90;12.37;;;;;;;19.91;66.19;99884.97;5028570;28;20193;-64
2023/05/21 00:41:30;;;;;;;16.43;12.03;;;;;;;19.91;66.13;99891.53;5006642;28;20476;-64
2023/05/21 00:43:59;;;;;;;16.37;12.50;;;;;;;19.91;66.19;99882.13;5024791;28;20621;-64
2023/05/21 00:46:24;;;;;;;17.67;12.53;;;;;;;19.92;65.93;99869.44;5010194;28;20907;-63
2023/05/21 00:48:49;;;;;;;16.10;12.47;;;;;;;19.90;65.86;99869.81;5010570;28;20480;-64
2023/05/21 00:51:15;;;;;;;14.53;12.27;;;;;;;19.90;65.99;99864.09;5023390;28;20185;-63
2023/05/21 00:53:41;;;;;;;14.90;12.00;;;;;;;19.90;66.16;99866.97;5035650;28;20192;-64
2023/05/21 00:56:06;;;;;;;16.03;11.53;;;;;;;19.90;66.13;99857.53;5028229;28;20173;-63
2023/05/21 00:58:32;;;;;;;16.20;11.77;;;;;;;19.90;66.14;99861.22;5024280;28;20200;-64
2023/05/21 01:01:02;;;;;;;14.80;11.33;;;;;;;19.89;65.95;99858.75;5009508;28;20212;-63
2023/05/21 01:03:37;;;;;;;17.23;13.60;;;;;;;19.89;66.33;99856.72;5018848;28;20234;-64
2023/05/21 01:06:06;;;;;;;14.53;12.00;;;;;;;19.88;66.10;99852.22;5026793;28;20418;-64
2023/05/21 01:08:33;;;;;;;14.03;12.53;;;;;;;19.87;66.13;99856.28;5010621;28;20522;-64
2023/05/21 01:10:59;;;;;;;19.40;13.03;;;;;;;19.87;66.21;99858.34;4991238;28;20419;-64
2023/05/21 01:13:25;;;;;;;18.33;13.43;;;;;;;19.87;66.32;99859.16;4996772;28;20470;-64
2023/05/21 01:15:50;;;;;;;14.20;11.97;;;;;;;19.87;66.03;99861.22;5027259;28;20180;-64
2023/05/21 01:18:18;;;;;;;18.10;13.37;;;;;;;19.87;66.02;99861.22;5009907;28;20214;-64
2023/05/21 01:20:46;;;;;;;18.63;12.90;;;;;;;19.86;66.21;99860.38;5010232;28;20165;-64
2023/05/21 01:23:21;;;;;;;17.23;12.13;;;;;;;19.85;65.96;99853.00;4982558;28;20514;-64
2023/05/21 01:25:47;;;;;;;15.97;11.70;;;;;;;19.85;66.08;99858.75;5007651;28;20450;-64
2023/05/21 01:28:12;;;;;;;13.73;11.30;;;;;;;19.85;66.38;99861.59;5010974;28;20474;-64
2023/05/21 01:30:38;;;;;;;14.63;12.23;;;;;;;19.85;65.87;99863.63;5012380;28;20184;-64
2023/05/21 01:33:11;;;;;;;17.87;13.20;;;;;;;19.85;66.32;99861.59;5020075;28;20811;-63
2023/05/21 01:35:52;;;;;;;16.77;12.70;;;;;;;19.85;65.94;99857.91;5027745;28;20429;-64
2023/05/21 01:38:30;;;;;;;15.87;12.17;;;;;;;19.84;65.97;99848.50;5022165;28;20626;-64
2023/05/21 01:41:02;;;;;;;19.47;13.10;;;;;;;19.84;66.22;99856.28;4990050;28;20416;-64
2023/05/21 01:43:28;;;;;;;18.77;12.53;;;;;;;19.83;66.00;99849.75;4994254;28;20435;-63
2023/05/21 01:45:54;;;;;;;17.00;13.33;;;;;;;19.83;66.14;99844.00;5007579;28;20443;-64
2023/05/21 01:48:19;;;;;;;16.93;13.13;;;;;;;19.84;66.08;99844.81;4986251;28;20701;-64
2023/05/21 01:50:45;;;;;;;21.10;13.93;;;;;;;19.83;66.23;99846.88;5026141;28;20169;-64
2023/05/21 01:53:10;;;;;;;18.17;13.27;;;;;;;19.83;66.12;99844.00;5026398;28;20177;-64
2023/05/21 01:55:40;;;;;;;15.57;12.53;;;;;;;19.83;66.15;99838.28;5011716;28;20185;-64
2023/05/21 01:58:06;;;;;;;19.67;13.83;;;;;;;19.83;66.10;99834.59;4993996;28;20201;-64
2023/05/21 02:00:33;;;;;;;19.33;13.00;;;;;;;19.81;66.21;99834.97;4993573;28;20428;-63
2023/05/21 02:02:58;;;;;;;14.27;12.13;;;;;;;19.82;66.17;99836.63;5019864;28;20576;-64
2023/05/21 02:05:24;;;;;;;15.80;12.93;;;;;;;19.81;66.13;99832.13;5010160;28;20447;-64
2023/05/21 02:07:50;;;;;;;23.60;13.47;;;;;;;19.80;66.19;99827.63;5010559;28;20274;-64
2023/05/21 02:10:16;;;;;;;16.27;12.30;;;;;;;19.80;66.09;99827.63;5014985;28;20197;-64
2023/05/21 02:12:42;;;;;;;16.07;13.23;;;;;;;19.79;66.10;99834.56;5010873;28;20428;-64
2023/05/21 02:15:07;;;;;;;16.40;12.30;;;;;;;19.80;66.27;99827.63;5015076;28;20195;-64
2023/05/21 02:17:33;;;;;;;14.93;12.50;;;;;;;19.80;66.29;99827.63;5029843;28;20176;-64
2023/05/21 02:20:10;;;;;;;17.00;13.20;;;;;;;19.80;66.28;99829.66;5031359;28;20525;-64
2023/05/21 02:22:37;;;;;;;16.07;12.40;;;;;;;19.79;66.39;99825.97;5030711;28;20687;-64
2023/05/21 02:25:03;;;;;;;16.97;12.97;;;;;;;19.80;66.32;99827.63;5018912;28;20515;-64
2023/05/21 02:27:30;;;;;;;23.93;13.93;;;;;;;19.79;66.19;99825.97;5011459;28;20420;-64
2023/05/21 02:29:56;;;;;;;14.70;12.40;;;;;;;19.79;66.30;99828.84;5009858;28;20416;-64
2023/05/21 02:32:22;;;;;;;16.40;13.00;;;;;;;19.78;66.10;99824.34;5017502;28;20466;-64
2023/05/21 02:34:48;;;;;;;17.17;13.00;;;;;;;19.79;66.29;99819.41;5014699;28;20196;-64
2023/05/21 02:37:14;;;;;;;17.57;13.77;;;;;;;19.78;66.38;99820.66;5014099;28;20415;-64
2023/05/21 02:39:40;;;;;;;16.90;12.40;;;;;;;19.78;66.08;99815.75;5046427;28;20524;-63
2023/05/21 02:42:05;;;;;;;19.73;14.10;;;;;;;19.78;66.21;99818.63;5027280;28;20823;-64
2023/05/21 02:44:30;;;;;;;18.70;13.67;;;;;;;19.78;66.35;99812.88;5010426;28;20196;-64
2023/05/21 02:46:56;;;;;;;20.70;14.70;;;;;;;19.79;66.35;99819.41;5028296;28;20165;-63
2023/05/21 02:49:21;;;;;;;19.03;14.03;;;;;;;19.77;66.55;99814.09;5027255;28;20172;-64
2023/05/21 02:51:47;;;;;;;16.93;13.27;;;;;;;19.77;66.44;99816.94;5009577;28;20190;-63
2023/05/21 02:54:12;;;;;;;16.60;13.33;;;;;;;19.77;66.21;99819.81;5009441;28;20177;-64
2023/05/21 02:56:38;;;;;;;16.70;13.60;;;;;;;19.77;66.05;99819.81;5026357;28;20712;-64
2023/05/21 02:59:03;;;;;;;19.97;13.67;;;;;;;19.77;66.06;99822.69;5029070;28;20211;-64
2023/05/21 03:01:28;;;;;;;19.00;14.27;;;;;;;19.77;66.26;99819.81;5030350;28;20172;-63
2023/05/21 03:03:54;;;;;;;20.90;13.90;;;;;;;19.77;65.95;99819.00;5011565;28;20184;-64
2023/05/21 03:06:19;;;;;;;16.03;13.67;;;;;;;19.76;66.36;99826.78;5030028;28;20181;-64
2023/05/21 03:08:45;;;;;;;16.93;13.73;;;;;;;19.75;66.22;99819.41;5048327;28;20199;-64
2023/05/21 03:11:10;;;;;;;18.10;14.67;;;;;;;19.76;66.38;99823.91;5027099;28;20191;-64
2023/05/21 03:13:35;;;;;;;19.47;14.93;;;;;;;19.76;66.36;99826.78;4995844;28;20192;-64
2023/05/21 03:16:01;;;;;;;18.03;13.67;;;;;;;19.76;66.67;99826.78;5000440;28;20204;-63
2023/05/21 03:18:27;;;;;;;18.03;14.67;;;;;;;19.76;66.21;99823.91;4992549;28;20216;-64
2023/05/21 03:20:53;;;;;;;16.00;13.10;;;;;;;19.75;66.38;99825.13;5016001;28;20229;-64
2023/05/21 03:23:18;;;;;;;16.30;12.87;;;;;;;19.74;66.26;99823.50;5010914;28;20427;-64
2023/05/21 03:25:44;;;;;;;17.60;13.87;;;;;;;19.75;66.56;99825.13;5025553;28;20192;-63
2023/05/21 03:28:10;;;;;;;18.57;13.47;;;;;;;19.75;66.31;99818.56;5011776;28;20173;-64
2023/05/21 03:30:37;;;;;;;18.60;14.23;;;;;;;19.76;66.26;99825.97;5011872;28;20434;-63
2023/05/21 03:33:03;;;;;;;17.23;14.07;;;;;;;19.75;66.30;99827.16;5010353;28;20857;-64
2023/05/21 03:35:29;;;;;;;17.70;12.97;;;;;;;19.75;66.42;99841.47;5009899;28;20915;-64
2023/05/21 03:37:54;;;;;;;17.33;13.83;;;;;;;19.75;66.46;99830.03;5011738;28;20470;-64
2023/05/21 03:40:20;;;;;;;17.40;13.80;;;;;;;19.75;66.42;99830.03;5037568;28;20195;-64
2023/05/21 03:42:46;;;;;;;18.03;13.70;;;;;;;19.73;66.42;99841.91;5018547;28;20199;-64
2023/05/21 03:45:12;;;;;;;18.23;14.47;;;;;;;19.75;66.35;99845.19;5009261;28;20181;-64
2023/05/21 03:47:37;;;;;;;16.37;13.10;;;;;;;19.75;66.14;99836.59;5011503;28;20471;-63
2023/05/21 03:50:04;;;;;;;17.13;13.90;;;;;;;19.74;66.30;99846.41;5015157;28;20625;-64
2023/05/21 03:52:30;;;;;;;18.20;13.87;;;;;;;19.74;66.42;99843.53;5006345;28;20573;-64
2023/05/21 03:54:55;;;;;;;17.23;14.03;;;;;;;19.74;65.96;99843.53;4988302;28;20419;-64
2023/05/21 03:57:21;;;;;;;18.00;13.87;;;;;;;19.74;66.51;99852.13;5007330;28;20852;-64
2023/05/21 03:59:46;;;;;;;21.93;14.40;;;;;;;19.73;66.28;99844.78;5011080;28;20700;-64
2023/05/21 04:02:12;;;;;;;18.80;12.90;;;;;;;19.74;66.53;99843.53;4995616;28;20192;-64
2023/05/21 04:04:37;;;;;;;16.97;12.80;;;;;;;19.73;66.34;99847.63;5024618;28;20184;-64
2023/05/21 04:07:03;;;;;;;16.60;13.57;;;;;;;19.72;66.39;99854.56;5028130;28;20232;-63
2023/05/21 04:09:29;;;;;;;20.87;14.83;;;;;;;19.74;66.33;99852.13;5024378;28;20744;-64
2023/05/21 04:11:54;;;;;;;19.70;13.20;;;;;;;19.74;66.31;99859.91;5009210;28;20432;-64
2023/05/21 04:14:22;;;;;;;16.73;13.80;;;;;;;19.73;66.16;99859.09;5010629;28;20531;-63
2023/05/21 04:16:47;;;;;;;18.80;14.40;;;;;;;19.73;66.38;99861.13;5016318;28;20283;-63
2023/05/21 04:19:13;;;;;;;18.50;13.67;;;;;;;19.73;66.40;99866.84;5028083;28;21048;-64
2023/05/21 04:21:39;;;;;;;20.63;14.23;;;;;;;19.73;66.49;99873.41;5027166;28;20207;-64
2023/05/21 04:24:04;;;;;;;18.23;13.63;;;;;;;19.73;66.38;99878.31;5028839;28;20180;-63
2023/05/21 04:26:32;;;;;;;17.90;13.40;;;;;;;19.72;66.38;99879.53;5012967;28;20188;-63
2023/05/21 04:28:58;;;;;;;17.77;14.30;;;;;;;19.73;66.38;99881.16;5007844;28;20183;-64
2023/05/21 04:31:23;;;;;;;16.90;14.03;;;;;;;19.72;66.48;99874.59;5009016;28;20876;-64
2023/05/21 04:33:49;;;;;;;19.70;15.17;;;;;;;19.72;66.34;99880.34;5025237;28;20188;-64
2023/05/21 04:36:16;;;;;;;17.53;13.30;;;;;;;19.73;66.41;99881.16;5009324;28;20189;-64
2023/05/21 04:38:41;;;;;;;18.20;13.77;;;;;;;19.71;66.53;99884.44;5019460;28;20232;-64
2023/05/21 04:41:09;;;;;;;18.07;12.87;;;;;;;19.71;66.43;99881.56;5010320;28;20434;-64
2023/05/21 04:43:35;;;;;;;17.90;13.73;;;;;;;19.71;66.62;99886.50;5006633;28;20181;-64
2023/05/21 04:46:01;;;;;;;16.57;13.67;;;;;;;19.71;66.45;99893.03;5025910;28;20426;-64
2023/05/21 04:48:27;;;;;;;17.30;13.93;;;;;;;19.72;65.87;99899.59;5008598;28;20526;-64
2023/05/21 04:50:53;;;;;;;18.30;13.30;;;;;;;19.72;66.33;99888.94;5010432;28;20173;-64
2023/05/21 04:53:18;;;;;;;17.80;14.17;;;;;;;19.72;66.48;99888.13;5009591;28;20446;-64
2023/05/21 04:55:43;;;;;;;18.10;13.73;;;;;;;19.71;66.40;99897.94;5007642;28;20177;-64
2023/05/21 04:58:10;;;;;;;19.73;14.40;;;;;;;19.71;66.50;99904.47;5006400;28;20201;-64
2023/05/21 05:00:37;;;;;;;21.70;14.83;;;;;;;19.71;66.38;99898.75;5008523;28;20192;-64
2023/05/21 05:03:02;;;;;;;18.93;14.20;;;;;;;19.71;66.49;99904.47;5020541;28;20541;-64
2023/05/21 05:05:28;;;;;;;17.83;14.30;;;;;;;19.71;66.45;99903.69;5010247;28;20432;-64
2023/05/21 05:07:53;;;;;;;16.77;13.83;;;;;;;19.71;66.45;99903.69;4991309;28;20236;-64
2023/05/21 05:10:19;;;;;;;19.70;14.07;;;;;;;19.72;66.44;99896.72;5020518;28;20173;-64
2023/05/21 05:12:44;;;;;;;18.00;14.33;;;;;;;19.70;66.65;99902.00;5022352;28;20216;-64
2023/05/21 05:15:10;;;;;;;17.13;13.37;;;;;;;19.70;66.54;99891.38;5025815;28;20192;-64
2023/05/21 05:17:35;;;;;;;18.77;13.90;;;;;;;19.70;66.40;99888.53;5026456;28;20236;-64
2023/05/21 05:20:01;;;;;;;18.03;13.97;;;;;;;19.71;66.25;99889.34;5014766;28;20549;-64
2023/05/21 05:22:26;;;;;;;17.57;13.50;;;;;;;19.71;65.99;99886.50;5008014;28;20200;-64
2023/05/21 05:24:52;;;;;;;15.50;13.03;;;;;;;19.69;66.46;99884.03;5009945;28;20556;-64
2023/05/21 05:27:17;;;;;;;17.13;13.47;;;;;;;19.70;66.40;99893.41;5025451;28;20589;-64
2023/05/21 05:29:44;;;;;;;18.33;13.87;;;;;;;19.69;66.49;99884.03;5026180;28;20630;-64
2023/05/21 05:32:09;;;;;;;19.43;14.50;;;;;;;19.70;66.66;99890.56;5022026;28;20188;-64
2023/05/21 05:34:34;;;;;;;19.13;13.23;;;;;;;19.69;66.27;99886.06;5027732;28;20776;-64
2023/05/21 05:37:01;;;;;;;20.43;14.47;;;;;;;19.69;66.62;99886.06;5020473;28;20255;-64
2023/05/21 05:39:27;;;;;;;18.77;13.30;;;;;;;19.69;66.55;99877.47;5007528;28;20211;-64
2023/05/21 05:41:52;;;;;;;18.97;13.97;;;;;;;19.69;66.12;99883.19;5007820;28;20420;-64
2023/05/21 05:44:18;;;;;;;18.87;15.20;;;;;;;19.69;66.55;99884.03;5010350;28;20539;-64
2023/05/21 05:46:43;;;;;;;18.53;13.27;;;;;;;19.68;66.43;99879.53;5006354;28;20540;-64
2023/05/21 05:49:09;;;;;;;19.00;14.57;;;;;;;19.69;66.42;99889.75;5009985;28;20187;-64
2023/05/21 05:51:35;;;;;;;17.97;13.50;;;;;;;19.68;66.34;99885.25;4993493;28;20196;-64
2023/05/21 05:54:00;;;;;;;16.70;13.10;;;;;;;19.68;66.47;99888.13;5026096;28;20187;-64
2023/05/21 05:56:25;;;;;;;18.10;13.80;;;;;;;19.69;66.45;99886.06;5022431;28;20245;-64
2023/05/21 05:58:51;;;;;;;18.63;14.70;;;;;;;19.69;66.51;99881.16;5027277;28;20261;-64
2023/05/21 06:01:17;;;;;;;19.37;14.60;;;;;;;19.68;66.39;99876.66;5021289;28;20235;-64
2023/05/21 06:03:43;;;;;;;17.87;14.30;;;;;;;19.68;66.54;99876.66;5025874;28;20192;-64
2023/05/21 06:06:08;;;;;;;15.60;12.53;;;;;;;19.69;66.54;99883.19;5028426;28;20430;-64
2023/05/21 06:08:33;;;;;;;17.57;13.20;;;;;;;19.68;66.57;99878.69;5016130;28;20209;-64
2023/05/21 06:10:59;;;;;;;21.50;15.27;;;;;;;19.69;66.06;99884.03;5010688;28;20296;-63
2023/05/21 06:13:25;;;;;;;20.80;14.10;;;;;;;19.69;66.54;99877.47;5008108;28;20200;-64
2023/05/21 06:15:51;;;;;;;16.13;12.87;;;;;;;19.69;66.56;99878.28;5009703;28;20200;-63
2023/05/21 06:18:17;;;;;;;17.50;13.30;;;;;;;19.69;66.53;99878.28;5013414;28;20208;-63
2023/05/21 06:20:42;;;;;;;18.30;13.77;;;;;;;19.70;66.15;99887.69;5008002;28;20409;-64
2023/05/21 06:23:08;;;;;;;19.93;14.33;;;;;;;19.70;66.22;99882.78;5007252;28;20181;-64
2023/05/21 06:25:34;;;;;;;17.93;13.50;;;;;;;19.69;66.36;99889.75;5009414;28;20307;-64
2023/05/21 06:27:59;;;;;;;19.20;13.70;;;;;;;19.69;66.29;99895.47;5006209;28;20247;-64
2023/05/21 06:30:25;;;;;;;23.63;15.00;;;;;;;19.69;66.64;99892.63;4999320;28;20210;-63
2023/05/21 06:32:50;;;;;;;19.30;14.63;;;;;;;19.70;66.30;99893.41;5028004;28;20223;-63
2023/05/21 06:35:15;;;;;;;19.07;14.13;;;;;;;19.69;66.39;99889.75;5026362;28;20177;-63
2023/05/21 06:37:41;;;;;;;19.30;13.43;;;;;;;19.69;66.37;99889.75;5016569;28;20188;-64
2023/05/21 06:40:07;;;;;;;18.30;14.17;;;;;;;19.68;66.45;99899.56;5026695;28;20539;-64
2023/05/21 06:42:33;;;;;;;23.60;14.83;;;;;;;19.68;66.38;99890.13;5008731;28;20439;-63
2023/05/21 06:44:58;;;;;;;19.60;13.37;;;;;;;19.69;66.49;99891.78;5012725;28;20450;-63
2023/05/21 06:47:24;;;;;;;20.53;15.03;;;;;;;19.69;66.39;99888.91;5046262;28;20192;-63
2023/05/21 06:49:49;;;;;;;17.37;14.23;;;;;;;19.68;66.42;99893.84;5031612;28;20160;-64
2023/05/21 06:52:15;;;;;;;20.37;14.00;;;;;;;19.69;66.47;99889.75;5027513;28;20207;-64
2023/05/21 06:54:41;;;;;;;19.70;15.03;;;;;;;19.68;66.58;99899.56;5032075;28;20172;-64
2023/05/21 06:57:06;;;;;;;19.30;14.97;;;;;;;19.68;66.66;99899.56;5016395;28;20200;-64
2023/05/21 06:59:32;;;;;;;19.33;14.23;;;;;;;19.67;66.69;99900.75;5022446;28;20479;-64
2023/05/21 07:01:57;;;;;;;17.97;13.77;;;;;;;19.68;66.80;99905.28;5013382;28;20189;-64
2023/05/21 07:04:23;;;;;;;19.33;13.73;;;;;;;19.68;66.50;99899.56;5010443;28;20196;-64
2023/05/21 07:06:48;;;;;;;19.23;14.13;;;;;;;19.68;66.46;99904.47;5011221;28;20220;-64
2023/05/21 07:09:14;;;;;;;20.30;14.20;;;;;;;19.69;66.33;99892.63;5019565;28;20207;-64
2023/05/21 07:11:39;;;;;;;18.90;13.20;;;;;;;19.69;66.67;99901.22;5018711;28;20189;-64
2023/05/21 07:14:05;;;;;;;21.37;14.60;;;;;;;19.68;66.60;99899.56;5028892;28;20663;-64
2023/05/21 07:16:31;;;;;;;17.90;13.57;;;;;;;19.67;66.81;99892.16;5013861;28;20171;-64
2023/05/21 07:18:56;;;;;;;17.93;13.10;;;;;;;19.68;66.65;99902.44;5026537;28;20216;-64
2023/05/21 07:21:21;;;;;;;18.10;13.57;;;;;;;19.68;66.75;99893.84;5030418;28;20180;-64
2023/05/21 07:23:47;;;;;;;18.57;13.20;;;;;;;19.68;66.75;99899.56;5027441;28;20192;-64
2023/05/21 07:26:12;;;;;;;20.30;14.67;;;;;;;19.68;66.64;99905.28;5010145;28;20165;-64
2023/05/21 07:28:38;;;;;;;18.93;13.97;;;;;;;19.68;66.85;99905.28;5012916;28;20195;-64
2023/05/21 07:31:03;;;;;;;18.60;14.10;;;;;;;19.69;66.84;99900.38;5008033;28;20251;-64
2023/05/21 07:33:29;;;;;;;17.63;13.30;;;;;;;19.68;66.79;99905.28;5024677;28;20185;-64
2023/05/21 07:35:54;;;;;;;17.03;13.03;;;;;;;19.69;66.98;99895.47;5017149;28;20561;-65
2023/05/21 07:38:19;;;;;;;19.70;13.80;;;;;;;19.68;66.86;99901.59;5009279;28;20542;-64
2023/05/21 07:40:45;;;;;;;19.70;14.30;;;;;;;19.69;66.86;99888.91;5012943;28;20234;-64
2023/05/21 07:43:11;;;;;;;19.73;15.23;;;;;;;19.68;66.92;99890.97;5029082;28;20181;-64
2023/05/21 07:45:37;;;;;;;17.07;13.20;;;;;;;19.68;67.01;99893.84;5029553;28;20176;-65
2023/05/21 07:48:02;;;;;;;19.97;14.43;;;;;;;19.68;66.84;99887.28;5017581;28;20947;-64
2023/05/21 07:50:28;;;;;;;18.27;14.43;;;;;;;19.68;67.16;99893.84;5012239;28;20177;-65
2023/05/21 07:52:53;;;;;;;16.57;13.03;;;;;;;19.68;67.03;99893.84;5013432;28;20199;-64
2023/05/21 07:55:19;;;;;;;18.87;14.40;;;;;;;19.68;67.19;99896.69;5011214;28;20169;-64
2023/05/21 07:57:45;;;;;;;17.90;13.70;;;;;;;19.68;67.18;99893.00;5011151;28;20239;-64
2023/05/21 08:00:13;;;;;;;16.80;12.53;;;;;;;19.68;67.06;99893.00;5010872;28;20184;-64
2023/05/21 08:02:38;;;;;;;18.50;13.50;;;;;;;19.69;66.76;99892.63;5023156;28;20419;-64
2023/05/21 08:05:04;;;;;;;17.97;14.20;;;;;;;19.68;66.82;99899.56;5030877;28;21020;-64
2023/05/21 08:07:31;;;;;;;19.37;14.20;;;;;;;19.68;66.94;99899.56;5008159;28;20236;-64
2023/05/21 08:09:57;;;;;;;17.00;13.77;;;;;;;19.69;67.39;99888.91;5009894;28;20208;-63
2023/05/21 08:12:23;;;;;;;20.30;14.47;;;;;;;19.69;67.29;99892.63;5011011;28;20438;-63
2023/05/21 08:14:48;;;;;;;20.10;14.60;;;;;;;19.69;67.05;99891.78;5026372;28;20416;-64
2023/05/21 08:17:14;;;;;;;18.87;14.37;;;;;;;19.68;67.13;99896.69;5023133;28;20188;-63
2023/05/21 08:19:40;;;;;;;18.97;13.73;;;;;;;19.69;67.12;99888.91;5028362;28;20203;-64
2023/05/21 08:22:06;;;;;;;19.50;13.90;;;;;;;19.69;67.33;99895.47;5024426;28;20444;-64
2023/05/21 08:24:31;;;;;;;16.40;12.87;;;;;;;19.68;67.14;99888.13;5009530;28;20789;-64
2023/05/21 08:26:57;;;;;;;16.50;13.37;;;;;;;19.70;67.23;99890.56;5008471;28;20165;-63
2023/05/21 08:29:22;;;;;;;20.00;14.53;;;;;;;19.69;67.23;99894.66;5011440;28;20192;-64
2023/05/21 08:31:47;;;;;;;22.50;15.53;;;;;;;19.69;67.24;99884.03;5010335;28;20193;-63
2023/05/21 08:34:13;;;;;;;17.13;13.70;;;;;;;19.69;67.22;99881.16;5043634;28;20179;-64
2023/05/21 08:36:41;;;;;;;18.77;13.43;;;;;;;19.70;66.95;99873.38;5027343;28;20242;-63
2023/05/21 08:39:07;;;;;;;19.53;14.00;;;;;;;19.70;67.17;99879.09;5010253;28;20668;-62
2023/05/21 08:41:33;;;;;;;16.13;13.47;;;;;;;19.69;67.23;99881.16;5021407;28;20438;-63
2023/05/21 08:44:00;;;;;;;17.17;13.90;;;;;;;19.70;67.39;99879.94;5029455;28;20215;-62
2023/05/21 08:46:25;;;;;;;18.73;13.97;;;;;;;19.70;67.37;99884.81;5008109;28;20487;-64
2023/05/21 08:48:54;;;;;;;20.50;14.27;;;;;;;19.70;67.20;99879.09;5012545;28;20426;-64
2023/05/21 08:51:20;;;;;;;17.40;13.70;;;;;;;19.70;67.03;99884.81;5028951;28;20237;-63
2023/05/21 08:53:47;;;;;;;19.47;14.10;;;;;;;19.71;67.56;99877.91;5029364;28;20423;-64
2023/05/21 08:56:14;;;;;;;21.33;15.00;;;;;;;19.71;67.29;99880.75;5021561;28;20530;-64
2023/05/21 08:58:42;;;;;;;19.20;14.33;;;;;;;19.70;67.46;99885.66;5008603;28;20451;-64
2023/05/21 09:01:08;;;;;;;16.80;14.00;;;;;;;19.71;67.21;99884.44;5011824;28;20423;-63
2023/05/21 09:03:33;;;;;;;17.47;13.93;;;;;;;19.72;67.48;99891.00;5018349;28;20670;-63
2023/05/21 09:05:58;;;;;;;18.67;13.37;;;;;;;19.72;67.46;99888.13;5007721;28;20183;-63
2023/05/21 09:08:28;;;;;;;19.00;14.20;;;;;;;19.72;67.81;99894.66;5015904;28;20291;-64
2023/05/21 09:10:54;;;;;;;17.83;14.10;;;;;;;19.72;67.58;99886.06;5011211;28;20177;-63
2023/05/21 09:13:19;;;;;;;18.00;13.60;;;;;;;19.72;67.53;99891.78;5009770;28;20462;-64
2023/05/21 09:15:45;;;;;;;20.23;14.63;;;;;;;19.72;67.48;99891.78;5026543;28;20671;-64
2023/05/21 09:18:11;;;;;;;21.70;14.40;;;;;;;19.74;67.72;99885.69;5027942;28;20195;-64
2023/05/21 09:20:36;;;;;;;18.63;14.00;;;;;;;19.76;67.67;99883.25;5001800;28;20383;-65
2023/05/21 09:23:03;;;;;;;18.07;13.57;;;;;;;19.75;67.77;99882.41;5010586;28;20543;-63
2023/05/21 09:25:29;;;;;;;22.43;15.03;;;;;;;19.74;67.61;99889.38;5011652;28;20199;-63
2023/05/21 09:27:55;;;;;;;18.17;14.60;;;;;;;19.76;67.77;99895.50;5026996;28;20439;-63
2023/05/21 09:30:20;;;;;;;19.33;13.60;;;;;;;19.76;67.96;99886.91;5028888;28;20427;-63
2023/05/21 09:32:52;;;;;;;18.47;14.40;;;;;;;19.77;67.63;99884.88;5030919;28;20193;-64
2023/05/21 09:35:17;;;;;;;19.90;15.00;;;;;;;19.78;67.94;99889.38;5007564;28;20207;-64
2023/05/21 09:37:46;;;;;;;21.20;15.40;;;;;;;19.77;67.70;99882.81;5007183;28;21010;-64
2023/05/21 09:40:12;;;;;;;18.60;14.53;;;;;;;19.79;68.19;99891.03;5013470;28;20192;-63
2023/05/21 09:42:44;;;;;;;21.50;14.20;;;;;;;19.79;67.78;99883.28;5019120;28;20862;-64
2023/05/21 09:45:10;;;;;;;16.80;13.67;;;;;;;19.80;67.73;99882.03;5043197;28;20408;-64
2023/05/21 09:47:42;;;;;;;18.30;14.00;;;;;;;19.81;68.18;99886.53;5007331;28;20469;-64
2023/05/21 09:50:17;;;;;;;20.27;15.00;;;;;;;19.83;68.13;99884.13;5029075;28;20538;-64
2023/05/21 09:52:43;;;;;;;20.60;15.50;;;;;;;19.83;67.96;99881.25;5014852;28;20438;-63
2023/05/21 09:55:12;;;;;;;19.53;14.67;;;;;;;19.82;68.09;99885.31;5006486;28;20416;-63
2023/05/21 09:57:44;;;;;;;20.13;15.30;;;;;;;19.84;68.10;99885.75;5017869;28;20565;-64
2023/05/21 10:00:17;;;;;;;19.73;14.30;;;;;;;19.83;67.90;99883.28;5009180;28;20440;-64
2023/05/21 10:02:45;;;;;;;17.63;14.57;;;;;;;19.83;68.36;99878.38;5014864;28;20530;-63
2023/05/21 10:05:10;;;;;;;22.17;14.43;;;;;;;19.84;68.25;99880.03;5023729;28;20483;-63
2023/05/21 10:07:36;;;;;;;21.63;15.40;;;;;;;19.84;68.15;99874.28;5006897;28;20464;-64
2023/05/21 10:10:02;;;;;;;22.00;15.27;;;;;;;19.85;67.98;99873.06;5009044;28;20193;-63
2023/05/21 10:12:29;;;;;;;21.17;13.70;;;;;;;19.85;68.02;99870.19;4992849;28;20185;-63
2023/05/21 10:15:05;;;;;;;20.40;13.63;;;;;;;19.86;68.14;99877.56;4991206;28;20427;-65
2023/05/21 10:17:33;;;;;;;21.10;14.30;;;;;;;19.89;68.22;99868.19;5011699;28;20496;-66
2023/05/21 10:19:59;;;;;;;20.50;14.40;;;;;;;19.89;68.04;99865.31;5011300;28;20766;-65
2023/05/21 10:22:24;;;;;;;18.47;13.67;;;;;;;19.88;68.29;99869.41;5009461;28;20412;-65
2023/05/21 10:24:53;;;;;;;20.90;14.30;;;;;;;19.89;67.97;99868.19;5012779;28;20525;-65
2023/05/21 10:27:18;;;;;;;19.77;15.40;;;;;;;19.91;68.28;99860.00;5009378;28;20181;-64
2023/05/21 10:29:44;;;;;;;18.73;13.47;;;;;;;19.90;68.07;99855.50;5013879;28;20466;-65
2023/05/21 10:32:14;;;;;;;17.33;13.37;;;;;;;19.91;68.12;99848.53;5031797;28;20180;-64
2023/05/21 10:34:39;;;;;;;18.70;15.00;;;;;;;19.92;68.34;99850.19;5014235;28;20501;-65
2023/05/21 10:37:06;;;;;;;18.63;14.30;;;;;;;19.93;68.14;99848.97;5027958;28;20450;-65
2023/05/21 10:39:32;;;;;;;20.27;14.40;;;;;;;19.92;68.38;99850.19;5029625;28;20760;-65
2023/05/21 10:42:20;;;;;;;21.07;15.07;;;;;;;19.94;68.32;99858.38;5031192;28;20438;-64
2023/05/21 10:45:12;;;;;;;23.47;14.50;;;;;;;19.97;67.97;99858.38;5028939;28;20188;-64
2023/05/21 10:47:57;;;;;;;18.27;13.90;;;;;;;19.96;68.19;99848.16;5032290;28;20434;-65
2023/05/21 10:50:28;;;;;;;20.23;14.87;;;;;;;19.95;68.28;99843.66;5016379;28;21006;-64
2023/05/21 10:53:16;;;;;;;18.73;13.70;;;;;;;19.96;68.08;99841.63;5011676;28;20412;-64
2023/05/21 10:56:04;;;;;;;15.37;13.50;;;;;;;19.96;68.36;99830.97;5016318;28;20515;-64
2023/05/21 10:58:42;;;;;;;18.70;14.10;;;;;;;19.98;68.13;99842.88;5013089;28;20448;-64
2023/05/21 11:01:07;;;;;;;17.77;13.60;;;;;;;19.97;68.39;99838.34;5012902;28;20420;-64
2023/05/21 11:03:33;;;;;;;18.00;14.10;;;;;;;19.98;68.17;99840.00;5025981;28;20450;-64
2023/05/21 11:05:59;;;;;;;17.50;13.87;;;;;;;19.99;68.00;99840.81;5013358;28;20188;-64
2023/05/21 11:08:34;;;;;;;24.00;14.67;;;;;;;19.98;68.16;99842.88;5011743;28;20241;-64
2023/05/21 11:11:00;;;;;;;17.57;13.40;;;;;;;20.00;68.08;99851.03;5026277;28;20794;-63
2023/05/21 11:13:26;;;;;;;16.23;13.23;;;;;;;20.00;67.95;99853.91;5031194;28;20441;-63